Time;durP1;ratioP1;P1;durP2;ratioP2;P2;SDS_P1;SDS_P2;PMS_P1;PMS_P2;Temp;Humidity;BMP_temperature;BMP_pressure;BME280_temperature;BME280_humidity;BME280_pressure;Samples;Min_cycle;Max_cycle;Signal;HPM_P1;HPM_P2
2021/06/01 00:01:14;;;;;;;2.00;1.80;;;15.70;99.90;;;;;;5029637;28;20632;-73
2021/06/01 00:03:40;;;;;;;3.57;1.83;;;15.70;99.90;;;;;;5034835;28;20767;-72
2021/06/01 00:06:08;;;;;;;1.90;1.43;;;15.80;99.90;;;;;;5029392;28;20704;-72
2021/06/01 00:08:34;;;;;;;2.23;1.67;;;15.80;99.90;;;;;;5023484;28;20558;-72
2021/06/01 00:11:01;;;;;;;3.23;2.50;;;15.80;99.90;;;;;;5026311;28;20506;-73
2021/06/01 00:13:28;;;;;;;2.10;1.67;;;15.70;99.90;;;;;;5027031;28;20490;-71
2021/06/01 00:15:54;;;;;;;2.40;1.90;;;15.70;99.90;;;;;;5027733;28;20823;-72
2021/06/01 00:18:21;;;;;;;3.10;1.83;;;15.70;99.90;;;;;;5031804;28;20566;-72
2021/06/01 00:20:47;;;;;;;3.27;1.53;;;15.60;99.90;;;;;;5030045;28;20552;-72
2021/06/01 00:23:16;;;;;;;2.73;1.90;;;15.50;99.90;;;;;;5029380;28;20767;-73
2021/06/01 00:25:42;;;;;;;3.43;2.17;;;15.40;99.90;;;;;;5028460;28;20546;-72
2021/06/01 00:28:09;;;;;;;2.27;1.77;;;15.40;99.90;;;;;;5028357;28;20566;-72
2021/06/01 00:30:35;;;;;;;3.13;1.93;;;15.30;99.90;;;;;;5024392;28;20839;-71
2021/06/01 00:33:02;;;;;;;4.73;2.13;;;15.20;99.90;;;;;;5028029;28;20613;-72
2021/06/01 00:35:28;;;;;;;3.00;1.80;;;15.20;99.90;;;;;;5027117;28;20460;-72
2021/06/01 00:37:55;;;;;;;2.73;1.60;;;15.10;99.90;;;;;;5027825;28;20460;-72
2021/06/01 00:40:23;;;;;;;2.83;1.60;;;14.80;99.90;;;;;;5031103;28;20518;-72
2021/06/01 00:42:49;;;;;;;3.60;2.47;;;14.40;99.90;;;;;;5027440;28;21035;-72
2021/06/01 00:45:18;;;;;;;4.37;1.93;;;14.30;99.90;;;;;;5029878;28;20468;-72
2021/06/01 00:47:45;;;;;;;1.87;1.67;;;14.30;99.90;;;;;;5027012;28;20463;-73
2021/06/01 00:50:12;;;;;;;2.23;1.67;;;14.40;99.90;;;;;;5027596;28;24439;-72
2021/06/01 00:52:39;;;;;;;3.80;1.80;;;14.50;99.90;;;;;;5032036;28;20479;-72
2021/06/01 00:55:07;;;;;;;1.77;1.53;;;14.50;99.90;;;;;;5029933;28;20839;-73
2021/06/01 00:57:35;;;;;;;2.23;1.80;;;14.60;99.90;;;;;;5033050;28;20542;-72
2021/06/01 01:00:03;;;;;;;3.37;2.60;;;14.50;99.90;;;;;;5026743;28;20540;-72
2021/06/01 01:02:30;;;;;;;2.10;1.70;;;14.50;99.90;;;;;;5030368;28;20516;-72
2021/06/01 01:04:57;;;;;;;2.53;2.33;;;14.40;99.90;;;;;;5035425;28;20535;-73
2021/06/01 01:07:35;;;;;;;3.13;1.53;;;14.40;99.90;;;;;;5036338;28;20616;-72
2021/06/01 01:10:02;;;;;;;3.17;1.73;;;14.30;99.90;;;;;;5031206;28;20554;-72
2021/06/01 01:12:34;;;;;;;2.33;1.90;;;14.20;99.90;;;;;;5024737;28;21400;-72
2021/06/01 01:15:06;;;;;;;4.03;2.13;;;13.70;99.90;;;;;;5027508;28;20794;-72
2021/06/01 01:17:39;;;;;;;3.00;1.43;;;13.40;99.90;;;;;;5037323;28;20480;-72
2021/06/01 01:20:23;;;;;;;2.83;1.87;;;13.30;99.90;;;;;;5019072;28;20487;-73
2021/06/01 01:22:53;;;;;;;6.43;1.60;;;13.50;99.90;;;;;;5026002;28;20479;-73
2021/06/01 01:25:22;;;;;;;2.63;1.40;;;13.70;99.90;;;;;;5025063;28;20509;-72
2021/06/01 01:28:03;;;;;;;1.83;1.37;;;13.70;99.90;;;;;;5029316;28;20518;-73
2021/06/01 01:30:36;;;;;;;2.70;2.00;;;13.80;99.90;;;;;;5025867;28;20472;-73
2021/06/01 01:33:22;;;;;;;3.10;2.33;;;13.80;99.90;;;;;;5026188;28;20483;-71
2021/06/01 01:35:52;;;;;;;3.47;1.97;;;13.70;99.90;;;;;;5027429;28;20486;-72
2021/06/01 01:38:20;;;;;;;3.30;1.90;;;13.60;99.90;;;;;;5032634;28;20545;-72
2021/06/01 01:40:47;;;;;;;4.87;2.20;;;13.50;99.90;;;;;;5025518;28;20562;-72
2021/06/01 01:43:17;;;;;;;2.77;1.93;;;13.50;99.90;;;;;;5028692;28;20434;-72
2021/06/01 01:45:48;;;;;;;3.60;1.80;;;13.50;99.90;;;;;;5027734;28;20540;-72
2021/06/01 01:51:19;;;;;;;2.10;1.50;;;13.40;99.90;;;;;;4953649;28;20575;-73
2021/06/01 01:53:50;;;;;;;2.43;2.10;;;13.30;99.90;;;;;;4952043;28;20522;-72
2021/06/01 01:56:19;;;;;;;3.23;1.90;;;13.30;99.90;;;;;;4994784;28;20467;-72
2021/06/01 01:58:47;;;;;;;5.40;2.93;;;13.30;99.90;;;;;;5023980;28;20526;-71
2021/06/01 02:01:14;;;;;;;3.73;1.90;;;13.20;99.90;;;;;;5024193;28;20649;-72
2021/06/01 02:03:42;;;;;;;2.30;1.60;;;13.10;99.90;;;;;;5024316;28;20455;-72
2021/06/01 02:06:09;;;;;;;3.10;2.33;;;13.00;99.90;;;;;;5015470;28;20551;-72
2021/06/01 02:08:39;;;;;;;4.07;2.13;;;12.60;99.90;;;;;;5040017;28;20464;-70
2021/06/01 02:11:06;;;;;;;2.10;1.90;;;12.40;99.90;;;;;;5032585;28;20609;-72
2021/06/01 02:13:40;;;;;;;6.23;2.67;;;12.60;99.90;;;;;;5025073;28;20470;-72
2021/06/01 02:16:06;;;;;;;3.30;2.40;;;12.80;99.90;;;;;;5024414;28;20546;-73
2021/06/01 02:18:33;;;;;;;3.50;2.50;;;12.90;99.90;;;;;;5025234;28;20440;-72
2021/06/01 02:21:00;;;;;;;2.47;1.90;;;12.90;99.90;;;;;;5022581;28;20499;-73
2021/06/01 02:23:49;;;;;;;2.53;1.73;;;12.90;99.90;;;;;;5027413;28;20983;-72
2021/06/01 02:26:30;;;;;;;2.07;1.50;;;12.80;99.90;;;;;;5032932;28;20460;-73
2021/06/01 02:29:01;;;;;;;3.17;1.60;;;12.80;99.90;;;;;;5028830;28;20535;-73
2021/06/01 02:31:31;;;;;;;4.70;1.93;;;12.70;99.90;;;;;;5031115;28;20578;-72
2021/06/01 02:33:59;;;;;;;2.67;1.93;;;12.60;99.90;;;;;;5034340;28;20553;-73
2021/06/01 02:36:26;;;;;;;4.70;1.77;;;12.60;99.90;;;;;;5031814;28;20499;-73
2021/06/01 02:38:57;;;;;;;3.73;1.90;;;12.60;99.90;;;;;;5041635;28;20464;-73
2021/06/01 02:41:25;;;;;;;2.83;1.97;;;12.60;99.90;;;;;;5034881;28;20460;-73
2021/06/01 02:43:52;;;;;;;3.30;1.83;;;12.50;99.90;;;;;;5028894;28;20535;-72
2021/06/01 02:46:19;;;;;;;2.37;2.10;;;12.60;99.90;;;;;;5034785;28;21021;-73
2021/06/01 02:48:47;;;;;;;1.70;1.60;;;12.60;99.90;;;;;;5024451;28;20438;-73
2021/06/01 02:51:15;;;;;;;3.50;1.97;;;12.60;99.90;;;;;;5026375;28;20496;-72
2021/06/01 02:53:44;;;;;;;2.50;1.90;;;12.50;99.90;;;;;;5033601;28;20460;-73
2021/06/01 02:56:11;;;;;;;2.80;2.10;;;12.50;99.90;;;;;;5036380;28;20610;-72
2021/06/01 02:58:40;;;;;;;3.50;2.40;;;12.30;99.90;;;;;;5032793;28;20465;-72
2021/06/01 03:01:06;;;;;;;4.10;3.00;;;12.20;99.90;;;;;;5028468;28;20446;-71
2021/06/01 03:03:33;;;;;;;3.10;2.50;;;12.10;99.90;;;;;;5026046;28;20470;-72
2021/06/01 03:05:59;;;;;;;2.17;1.90;;;12.10;99.90;;;;;;5028369;28;20471;-72
2021/06/01 03:08:27;;;;;;;3.27;2.10;;;12.00;99.90;;;;;;5023842;28;20971;-72
2021/06/01 03:10:56;;;;;;;2.03;1.80;;;11.80;99.90;;;;;;5035513;28;20972;-72
2021/06/01 03:13:22;;;;;;;2.70;1.60;;;11.80;99.90;;;;;;5032801;28;20482;-72
2021/06/01 03:15:50;;;;;;;3.73;2.77;;;11.60;99.90;;;;;;5025486;28;20485;-72
2021/06/01 03:18:17;;;;;;;4.80;2.43;;;11.60;99.90;;;;;;5030298;28;20515;-72
2021/06/01 03:20:44;;;;;;;1.90;1.53;;;11.70;99.90;;;;;;5032896;28;20426;-72
2021/06/01 03:23:11;;;;;;;4.17;2.57;;;11.70;99.90;;;;;;5024884;28;20463;-72
2021/06/01 03:25:37;;;;;;;3.47;3.17;;;11.80;99.90;;;;;;5025573;28;20457;-71
2021/06/01 03:28:04;;;;;;;3.93;2.40;;;11.90;99.90;;;;;;5026140;28;20485;-72
2021/06/01 03:30:30;;;;;;;2.70;2.40;;;12.00;99.90;;;;;;5030275;28;20532;-72
2021/06/01 03:32:58;;;;;;;4.40;2.40;;;12.00;99.90;;;;;;5028529;28;20559;-72
2021/06/01 03:35:25;;;;;;;2.70;2.10;;;12.00;99.90;;;;;;5032219;28;20955;-71
2021/06/01 03:37:53;;;;;;;5.00;2.27;;;11.90;99.90;;;;;;5033348;28;20455;-72
2021/06/01 03:40:19;;;;;;;2.93;2.00;;;11.80;99.90;;;;;;5032953;28;20438;-72
2021/06/01 03:42:46;;;;;;;7.87;2.20;;;11.80;99.90;;;;;;5034638;28;20495;-71
2021/06/01 03:45:13;;;;;;;6.87;2.10;;;11.70;99.90;;;;;;5042147;28;20497;-71
2021/06/01 03:47:40;;;;;;;2.77;2.23;;;11.80;99.90;;;;;;5033506;28;20456;-71
2021/06/01 03:50:09;;;;;;;8.53;2.40;;;11.80;99.90;;;;;;5032914;28;20452;-71
2021/06/01 03:52:36;;;;;;;6.60;3.97;;;11.80;99.90;;;;;;5031972;28;20466;-71
2021/06/01 03:55:03;;;;;;;4.17;3.03;;;11.90;99.90;;;;;;5027957;28;20565;-70
2021/06/01 03:57:29;;;;;;;5.37;3.20;;;11.90;99.90;;;;;;5027204;28;20454;-72
2021/06/01 03:59:56;;;;;;;4.77;3.70;;;12.00;99.90;;;;;;5028861;28;20942;-71
2021/06/01 04:02:22;;;;;;;3.50;2.77;;;12.00;99.90;;;;;;5024450;28;20798;-71
2021/06/01 04:04:50;;;;;;;7.47;3.17;;;12.00;99.90;;;;;;5030420;28;20594;-70
2021/06/01 04:07:18;;;;;;;2.53;2.30;;;12.00;99.90;;;;;;5029341;28;20883;-71
2021/06/01 04:09:44;;;;;;;3.50;2.33;;;12.00;99.90;;;;;;5025458;28;20649;-71
2021/06/01 04:12:11;;;;;;;3.43;2.47;;;12.10;99.90;;;;;;5025901;28;20461;-71
2021/06/01 04:14:39;;;;;;;3.67;2.23;;;12.10;99.90;;;;;;5024921;28;20832;-70
2021/06/01 04:17:05;;;;;;;6.53;3.13;;;12.10;99.90;;;;;;5027497;28;20546;-71
2021/06/01 04:19:33;;;;;;;3.43;2.10;;;12.10;99.90;;;;;;5031467;28;20463;-70
2021/06/01 04:21:59;;;;;;;4.50;2.77;;;11.80;99.90;;;;;;5025951;28;20618;-69
2021/06/01 04:24:28;;;;;;;3.70;3.40;;;11.90;99.90;;;;;;5029553;28;20985;-71
2021/06/01 04:26:54;;;;;;;3.90;2.33;;;12.10;99.90;;;;;;5031000;28;20434;-70
2021/06/01 04:29:21;;;;;;;3.50;2.77;;;12.30;99.90;;;;;;5036519;28;20495;-71
2021/06/01 04:31:47;;;;;;;3.73;2.73;;;12.30;99.90;;;;;;5035125;28;20990;-71
2021/06/01 04:34:14;;;;;;;4.33;3.17;;;12.50;99.90;;;;;;5035673;28;20431;-71
2021/06/01 04:36:40;;;;;;;5.10;2.20;;;12.60;99.90;;;;;;5045672;28;20500;-71
2021/06/01 04:39:07;;;;;;;3.20;2.57;;;12.70;99.90;;;;;;5034423;28;20494;-70
2021/06/01 04:41:35;;;;;;;5.00;4.23;;;12.80;99.90;;;;;;5029095;28;21131;-72
2021/06/01 04:44:01;;;;;;;4.43;2.80;;;12.90;99.90;;;;;;5032540;28;20557;-71
2021/06/01 04:46:27;;;;;;;4.10;2.93;;;13.00;99.90;;;;;;5035641;28;20583;-71
2021/06/01 04:48:54;;;;;;;5.23;3.40;;;13.10;99.90;;;;;;5034526;28;20542;-71
2021/06/01 04:51:20;;;;;;;6.10;2.87;;;13.20;99.90;;;;;;5037316;28;20515;-71
2021/06/01 04:53:47;;;;;;;12.67;3.47;;;13.40;99.90;;;;;;5039875;28;20547;-70
2021/06/01 04:56:14;;;;;;;7.73;4.63;;;13.60;99.90;;;;;;5038035;28;20485;-71
2021/06/01 04:58:41;;;;;;;3.77;2.50;;;13.70;99.90;;;;;;5038957;28;20467;-70
2021/06/01 05:01:08;;;;;;;4.50;2.60;;;13.90;99.90;;;;;;5046130;28;21050;-71
2021/06/01 05:03:34;;;;;;;7.43;3.03;;;14.10;99.90;;;;;;5045993;28;20451;-71
2021/06/01 05:06:01;;;;;;;5.50;3.17;;;14.20;99.90;;;;;;5048259;28;20470;-71
2021/06/01 05:08:27;;;;;;;3.50;2.50;;;14.40;99.90;;;;;;5046068;28;20495;-71
2021/06/01 05:10:54;;;;;;;3.17;2.80;;;14.40;99.90;;;;;;5038888;28;20862;-71
2021/06/01 05:13:20;;;;;;;5.27;3.80;;;14.60;99.90;;;;;;5044648;28;20457;-71
2021/06/01 05:15:49;;;;;;;4.43;3.60;;;14.80;99.90;;;;;;5051866;28;20546;-70
2021/06/01 05:18:16;;;;;;;5.77;3.73;;;15.20;99.90;;;;;;5054164;28;20491;-71
2021/06/01 05:20:43;;;;;;;5.40;4.90;;;15.50;99.90;;;;;;5050329;28;20490;-68
2021/06/01 05:23:10;;;;;;;6.80;2.67;;;15.80;99.90;;;;;;5043323;28;20476;-71
2021/06/01 05:25:36;;;;;;;3.47;3.17;;;15.90;99.90;;;;;;5046717;28;20456;-71
2021/06/01 05:28:03;;;;;;;6.37;3.27;;;16.10;99.90;;;;;;5043919;28;20484;-71
2021/06/01 05:30:34;;;;;;;2.40;2.13;;;16.60;99.90;;;;;;5046748;28;20901;-71
2021/06/01 05:33:14;;;;;;;5.00;3.27;;;16.80;99.90;;;;;;5045060;28;20491;-71
2021/06/01 05:35:44;;;;;;;5.00;2.90;;;17.10;99.90;;;;;;5045283;28;20456;-69
2021/06/01 05:38:11;;;;;;;5.10;2.93;;;17.50;99.90;;;;;;5041541;28;20486;-70
2021/06/01 05:40:37;;;;;;;3.30;2.47;;;18.10;99.90;;;;;;5048319;28;20873;-71
2021/06/01 05:43:04;;;;;;;5.30;2.80;;;18.70;99.90;;;;;;5040333;28;20537;-71
2021/06/01 05:45:31;;;;;;;5.63;3.13;;;17.90;99.90;;;;;;5041826;28;20467;-71
2021/06/01 05:47:57;;;;;;;7.23;3.27;;;17.80;99.90;;;;;;5047631;28;20464;-71
2021/06/01 05:50:26;;;;;;;8.43;4.10;;;18.10;99.90;;;;;;5038135;28;20479;-71
2021/06/01 05:52:52;;;;;;;5.13;3.37;;;18.40;99.90;;;;;;5038619;28;20933;-70
2021/06/01 05:55:19;;;;;;;7.20;3.67;;;18.70;99.90;;;;;;5047582;28;20521;-70
2021/06/01 05:57:45;;;;;;;4.10;2.87;;;19.20;99.90;;;;;;5046142;28;20871;-69
2021/06/01 06:00:13;;;;;;;4.50;3.07;;;19.60;99.90;;;;;;5042455;28;20536;-70
2021/06/01 06:02:39;;;;;;;4.90;3.73;;;20.00;99.90;;;;;;5048056;28;20475;-70
2021/06/01 06:05:06;;;;;;;3.80;2.90;;;20.20;99.90;;;;;;5040276;28;20559;-72
2021/06/01 06:07:34;;;;;;;2.93;2.30;;;20.20;99.90;;;;;;5044924;28;20977;-70
2021/06/01 06:10:01;;;;;;;4.60;3.23;;;20.10;99.90;;;;;;5040866;28;20601;-70
2021/06/01 06:12:27;;;;;;;3.07;2.77;;;20.20;99.90;;;;;;5044882;28;20871;-73
2021/06/01 06:14:54;;;;;;;5.23;3.23;;;21.00;99.90;;;;;;5050492;28;20466;-70
2021/06/01 06:17:43;;;;;;;4.43;3.13;;;21.50;99.90;;;;;;5051143;28;20523;-70
2021/06/01 06:20:11;;;;;;;5.00;3.90;;;21.80;99.90;;;;;;5043948;28;20452;-71
2021/06/01 06:22:40;;;;;;;4.83;3.30;;;21.30;99.90;;;;;;5042318;28;21011;-71
2021/06/01 06:25:08;;;;;;;4.53;3.03;;;22.00;99.90;;;;;;5035187;28;20461;-71
2021/06/01 06:27:35;;;;;;;3.93;3.50;;;22.30;99.90;;;;;;5047906;28;21190;-72
2021/06/01 06:30:01;;;;;;;3.37;2.60;;;22.90;99.90;;;;;;5043244;28;20459;-72
2021/06/01 06:32:28;;;;;;;3.87;3.07;;;22.80;99.90;;;;;;5046517;28;20982;-71
2021/06/01 06:34:55;;;;;;;3.67;3.10;;;22.90;98.90;;;;;;5036211;28;20991;-71
2021/06/01 06:37:21;;;;;;;5.10;2.83;;;22.90;98.20;;;;;;5041317;28;21018;-72
2021/06/01 06:39:50;;;;;;;3.10;2.80;;;22.90;98.40;;;;;;5043815;28;20460;-71
2021/06/01 06:42:17;;;;;;;3.67;3.27;;;22.90;98.60;;;;;;5040476;28;20500;-69
2021/06/01 06:44:48;;;;;;;4.23;3.10;;;22.90;97.80;;;;;;5032844;28;20522;-71
2021/06/01 06:47:28;;;;;;;4.60;3.13;;;23.10;99.10;;;;;;5045001;28;20452;-71
2021/06/01 06:49:56;;;;;;;4.93;3.30;;;23.60;97.20;;;;;;5035583;28;20536;-71
2021/06/01 06:52:23;;;;;;;5.17;2.93;;;23.70;96.00;;;;;;5042914;28;20483;-71
2021/06/01 06:54:50;;;;;;;5.50;2.80;;;23.60;96.30;;;;;;5039715;28;21022;-70
2021/06/01 06:57:17;;;;;;;3.53;2.77;;;24.00;95.40;;;;;;5043339;28;20456;-71
2021/06/01 06:59:43;;;;;;;7.33;3.87;;;23.50;95.40;;;;;;5038014;28;21039;-71
2021/06/01 07:02:10;;;;;;;5.47;3.57;;;24.00;95.80;;;;;;5039342;28;20561;-71
2021/06/01 07:04:37;;;;;;;6.23;3.20;;;24.80;93.90;;;;;;5036759;28;20488;-71
2021/06/01 07:07:04;;;;;;;7.50;3.17;;;24.80;94.50;;;;;;5038028;28;20539;-70
2021/06/01 07:09:30;;;;;;;3.67;2.90;;;25.00;92.80;;;;;;5043246;28;20889;-71
2021/06/01 07:11:58;;;;;;;10.40;3.20;;;25.00;92.40;;;;;;5045883;28;20563;-72
2021/06/01 07:14:46;;;;;;;3.50;3.20;;;25.30;91.30;;;;;;5038487;28;20483;-71
2021/06/01 07:17:12;;;;;;;4.10;3.20;;;25.80;91.60;;;;;;5034142;28;20458;-71
2021/06/01 07:19:39;;;;;;;4.43;3.77;;;26.10;90.50;;;;;;5034359;28;20477;-70
2021/06/01 07:22:05;;;;;;;9.07;3.17;;;26.70;90.40;;;;;;5031938;28;20509;-71
2021/06/01 07:24:32;;;;;;;3.57;3.00;;;26.90;86.00;;;;;;5041395;28;20505;-71
2021/06/01 07:27:01;;;;;;;5.20;3.63;;;27.40;84.80;;;;;;5041463;28;20562;-71
2021/06/01 07:29:27;;;;;;;5.97;3.53;;;27.40;83.20;;;;;;5035324;28;20467;-70
2021/06/01 07:31:55;;;;;;;3.90;2.43;;;27.00;82.60;;;;;;5032834;28;25650;-71
2021/06/01 07:34:22;;;;;;;4.47;3.27;;;27.30;82.40;;;;;;5033702;28;20542;-70
2021/06/01 07:36:49;;;;;;;5.93;3.20;;;27.60;82.90;;;;;;5036029;28;20537;-71
2021/06/01 07:39:15;;;;;;;5.23;2.70;;;28.10;79.00;;;;;;5031562;28;20518;-71
2021/06/01 07:41:41;;;;;;;5.90;3.30;;;27.80;77.90;;;;;;5032780;28;21050;-71
2021/06/01 07:44:09;;;;;;;3.03;2.63;;;27.90;78.90;;;;;;5038281;28;20466;-71
2021/06/01 07:46:36;;;;;;;3.83;3.43;;;28.10;75.80;;;;;;5036245;28;20453;-71
2021/06/01 07:49:02;;;;;;;6.10;3.20;;;28.70;75.70;;;;;;5042220;28;20817;-71
2021/06/01 07:51:29;;;;;;;6.37;3.30;;;28.50;72.60;;;;;;5030096;28;20471;-71
2021/06/01 07:53:56;;;;;;;6.40;4.60;;;28.70;72.70;;;;;;5039861;28;20822;-71
2021/06/01 07:56:23;;;;;;;5.00;3.23;;;29.20;71.70;;;;;;5047818;28;20543;-71
2021/06/01 07:58:50;;;;;;;7.73;3.20;;;29.30;72.40;;;;;;5050322;28;20986;-71
2021/06/01 08:01:18;;;;;;;4.97;2.80;;;29.60;70.70;;;;;;5035476;28;20979;-71
2021/06/01 08:03:44;;;;;;;5.80;2.87;;;29.50;65.50;;;;;;5032981;28;20729;-71
2021/06/01 08:06:11;;;;;;;3.07;2.23;;;29.80;67.40;;;;;;5031839;28;20511;-71
2021/06/01 08:08:38;;;;;;;3.37;2.53;;;29.60;65.40;;;;;;5042909;28;20570;-71
2021/06/01 08:11:05;;;;;;;7.40;2.90;;;29.50;63.10;;;;;;5031970;28;20494;-71
2021/06/01 08:13:32;;;;;;;4.33;2.80;;;29.30;61.80;;;;;;5034623;28;20506;-71
2021/06/01 08:16:00;;;;;;;5.50;2.73;;;29.10;67.00;;;;;;5032694;28;20502;-71
2021/06/01 08:18:31;;;;;;;5.70;2.33;;;29.80;64.90;;;;;;5031044;28;21060;-72
2021/06/01 08:21:03;;;;;;;3.50;2.57;;;29.50;64.60;;;;;;5038552;28;20594;-71
2021/06/01 08:23:30;;;;;;;3.80;3.20;;;29.70;65.10;;;;;;5035418;28;20521;-71
2021/06/01 08:25:56;;;;;;;6.73;3.20;;;30.20;62.70;;;;;;5035284;28;20635;-70
2021/06/01 08:28:23;;;;;;;6.43;3.03;;;29.80;59.80;;;;;;5035781;28;20464;-71
2021/06/01 08:30:49;;;;;;;12.20;2.90;;;29.90;62.10;;;;;;5040895;28;20549;-71
2021/06/01 08:33:16;;;;;;;3.00;2.70;;;30.10;60.50;;;;;;5034825;28;20472;-71
2021/06/01 08:35:43;;;;;;;3.03;2.40;;;30.30;59.30;;;;;;5037705;28;20475;-70
2021/06/01 08:38:11;;;;;;;4.80;2.20;;;31.00;56.20;;;;;;5034924;28;20594;-71
2021/06/01 08:40:38;;;;;;;3.87;2.80;;;31.20;55.30;;;;;;5033999;28;20988;-72
2021/06/01 08:43:19;;;;;;;7.33;3.17;;;31.90;56.20;;;;;;5033882;28;20504;-71
2021/06/01 08:45:50;;;;;;;9.40;2.77;;;31.50;58.00;;;;;;5037255;28;20467;-70
2021/06/01 08:48:17;;;;;;;3.67;2.77;;;31.50;58.40;;;;;;5038826;28;20487;-72
2021/06/01 08:50:47;;;;;;;3.20;2.70;;;32.20;58.30;;;;;;5038908;28;20479;-72
2021/06/01 08:53:13;;;;;;;3.43;2.57;;;32.70;55.80;;;;;;5035057;28;20515;-72
2021/06/01 08:55:40;;;;;;;3.03;2.13;;;32.10;54.70;;;;;;5034653;28;20543;-72
2021/06/01 08:58:11;;;;;;;5.87;4.93;;;32.30;52.60;;;;;;5033421;28;20942;-71
2021/06/01 09:00:38;;;;;;;3.30;3.00;;;31.80;53.80;;;;;;5039246;28;20575;-71
2021/06/01 09:03:09;;;;;;;3.07;2.87;;;32.20;55.60;;;;;;5034928;28;20578;-72
2021/06/01 09:05:36;;;;;;;2.50;2.10;;;32.40;54.60;;;;;;5034922;28;20963;-71
2021/06/01 09:08:07;;;;;;;2.10;1.90;;;32.00;51.00;;;;;;5046178;28;20858;-72
2021/06/01 09:10:51;;;;;;;3.57;2.80;;;31.90;50.70;;;;;;5044309;28;20513;-71
2021/06/01 09:21:35;;;;;;;2.33;2.13;;;31.60;48.70;;;;;;5038402;28;20559;-71
2021/06/01 09:24:05;;;;;;;2.33;2.00;;;32.00;48.90;;;;;;5034350;28;20459;-71
2021/06/01 09:26:50;;;;;;;3.13;2.83;;;31.90;50.90;;;;;;5037037;28;20568;-71
2021/06/01 09:29:17;;;;;;;4.07;3.10;;;31.80;51.10;;;;;;5038459;28;20460;-71
2021/06/01 09:31:43;;;;;;;9.50;3.13;;;32.60;50.70;;;;;;5040762;28;20950;-70
2021/06/01 09:34:10;;;;;;;3.43;2.27;;;33.00;49.20;;;;;;5048470;28;20502;-71
2021/06/01 09:36:37;;;;;;;2.37;1.77;;;32.90;48.50;;;;;;5049324;28;20470;-71
2021/06/01 09:39:08;;;;;;;2.83;2.03;;;33.20;46.70;;;;;;5048383;28;20459;-73
2021/06/01 09:41:35;;;;;;;2.53;2.03;;;32.60;45.50;;;;;;5048928;28;20484;-71
2021/06/01 09:44:02;;;;;;;2.43;2.23;;;33.00;43.60;;;;;;5048306;28;20495;-71
2021/06/01 09:46:30;;;;;;;5.40;2.30;;;33.20;42.80;;;;;;5038732;28;20547;-71
2021/06/01 09:49:20;;;;;;;6.70;2.80;;;33.00;45.40;;;;;;5039186;28;20462;-72
2021/06/01 09:51:50;;;;;;;3.83;2.93;;;33.30;45.70;;;;;;5039782;28;20491;-70
2021/06/01 09:54:33;;;;;;;6.47;2.60;;;33.40;44.40;;;;;;5043884;28;20463;-72
2021/06/01 09:57:00;;;;;;;2.83;2.23;;;33.00;44.60;;;;;;5044148;28;20890;-70
2021/06/01 09:59:27;;;;;;;2.60;2.40;;;31.90;44.80;;;;;;5044005;28;20900;-70
2021/06/01 10:01:54;;;;;;;4.27;2.90;;;31.50;45.50;;;;;;5037441;28;20932;-70
2021/06/01 10:04:25;;;;;;;2.20;2.00;;;31.80;45.50;;;;;;5043130;28;20490;-71
2021/06/01 10:06:52;;;;;;;7.63;2.63;;;32.80;45.20;;;;;;5049103;28;20517;-70
2021/06/01 10:09:18;;;;;;;2.93;2.53;;;33.20;44.90;;;;;;5052258;28;20472;-69
2021/06/01 10:11:57;;;;;;;2.90;2.40;;;33.00;43.00;;;;;;5046416;28;20472;-71
2021/06/01 10:14:24;;;;;;;2.40;2.20;;;33.50;42.90;;;;;;5049183;28;20643;-71
2021/06/01 10:16:51;;;;;;;2.43;1.80;;;33.40;42.50;;;;;;5048848;28;20461;-69
2021/06/01 10:19:17;;;;;;;3.30;2.33;;;32.80;43.20;;;;;;5046114;28;20518;-71
2021/06/01 10:21:44;;;;;;;2.83;2.53;;;33.30;41.80;;;;;;5042166;28;20543;-71
2021/06/01 10:24:13;;;;;;;3.93;2.20;;;33.00;42.50;;;;;;5036753;28;20545;-71
2021/06/01 10:26:41;;;;;;;2.83;2.53;;;33.10;43.40;;;;;;5044662;28;20803;-71
2021/06/01 10:29:09;;;;;;;3.00;2.57;;;33.30;40.90;;;;;;5044515;28;20455;-70
2021/06/01 10:31:37;;;;;;;3.07;1.90;;;33.10;42.90;;;;;;5049111;28;20590;-71
2021/06/01 10:34:09;;;;;;;2.20;2.00;;;33.70;41.60;;;;;;5043919;28;20890;-71
2021/06/01 10:42:35;;;;;;;4.57;2.73;;;33.90;43.00;;;;;;5073355;28;20578;-72
2021/06/01 10:51:00;;;;;;;4.33;2.50;;;34.00;40.70;;;;;;5056533;28;20469;-70
2021/06/01 10:53:38;;;;;;;2.10;1.80;;;33.80;41.70;;;;;;5057245;28;20463;-71
2021/06/01 10:56:06;;;;;;;3.27;2.40;;;34.00;42.00;;;;;;5062480;28;20545;-71
2021/06/01 10:59:03;;;;;;;3.07;2.27;;;33.40;40.90;;;;;;5057239;28;20462;-71
2021/06/01 11:04:19;;;;;;;3.00;2.47;;;31.90;43.40;;;;;;5051648;28;20445;-71
2021/06/01 11:07:29;;;;;;;4.23;2.67;;;32.80;43.00;;;;;;5054729;28;20531;-72
2021/06/01 11:09:56;;;;;;;3.30;2.57;;;33.90;41.80;;;;;;5015207;28;21028;-69
2021/06/01 11:12:44;;;;;;;5.63;2.43;;;33.60;42.40;;;;;;5057227;28;20549;-71
2021/06/01 11:15:30;;;;;;;2.30;1.97;;;33.40;41.10;;;;;;5053784;28;20471;-71
2021/06/01 11:18:24;;;;;;;4.23;2.50;;;33.30;41.90;;;;;;5057771;28;21093;-70
2021/06/01 11:21:14;;;;;;;3.30;1.77;;;33.90;41.70;;;;;;5056603;28;20486;-69
2021/06/01 11:33:25;;;;;;;2.30;2.10;;;34.50;41.70;;;;;;4999378;28;20768;-71
2021/06/01 11:35:57;;;;;;;2.90;2.43;;;34.00;42.00;;;;;;5003761;28;20497;-69
2021/06/01 11:38:30;;;;;;;2.53;2.07;;;34.20;41.40;;;;;;5027710;28;20487;-68
2021/06/01 11:43:41;;;;;;;2.40;1.80;;;33.80;41.90;;;;;;5034889;28;20486;-71
2021/06/01 11:46:11;;;;;;;2.57;2.30;;;32.30;42.00;;;;;;5051634;28;20491;-70
2021/06/01 11:51:34;;;;;;;2.50;1.87;;;33.40;41.20;;;;;;5048348;28;20474;-70
2021/06/01 11:54:02;;;;;;;2.47;2.27;;;32.90;42.80;;;;;;5047531;28;20464;-71
2021/06/01 11:56:45;;;;;;;3.20;2.33;;;33.60;41.20;;;;;;5041469;28;20463;-71
2021/06/01 12:02:06;;;;;;;2.30;2.10;;;34.00;40.20;;;;;;5039967;28;20526;-71
2021/06/01 12:04:48;;;;;;;2.37;2.13;;;34.40;41.30;;;;;;5053655;28;20443;-71
2021/06/01 12:12:53;;;;;;;3.20;2.20;;;35.50;39.80;;;;;;5042992;28;20514;-70
2021/06/01 12:18:15;;;;;;;2.37;2.00;;;35.20;38.40;;;;;;5032560;28;20514;-70
2021/06/01 12:20:43;;;;;;;3.00;2.00;;;34.30;39.60;;;;;;5048034;28;20467;-70
2021/06/01 12:23:30;;;;;;;3.80;2.40;;;34.20;40.40;;;;;;5041369;28;21001;-70
2021/06/01 12:26:07;;;;;;;2.60;2.40;;;34.90;40.70;;;;;;5044482;28;20463;-71
2021/06/01 12:31:22;;;;;;;2.57;1.97;;;34.50;40.50;;;;;;5045310;28;20538;-75
2021/06/01 12:33:59;;;;;;;2.63;2.00;;;34.30;40.10;;;;;;5045032;28;20914;-71
2021/06/01 12:42:32;;;;;;;4.60;2.10;;;35.50;40.50;;;;;;5047987;28;20537;-71
2021/06/01 12:44:58;;;;;;;2.40;2.20;;;36.50;38.80;;;;;;5047292;28;20455;-71
2021/06/01 13:05:15;;;;;;;2.73;2.53;;;35.90;38.80;;;;;;5042767;28;20460;-71
2021/06/01 13:07:55;;;;;;;4.47;2.63;;;34.50;39.80;;;;;;5042441;28;20454;-70
2021/06/01 13:21:46;;;;;;;3.30;3.00;;;34.60;40.10;;;;;;5031713;28;21086;-70
2021/06/01 13:24:31;;;;;;;5.10;2.97;;;35.70;38.50;;;;;;5040645;28;20513;-71
2021/06/01 13:30:20;;;;;;;4.43;2.40;;;35.10;39.50;;;;;;5047094;28;20456;-70
2021/06/01 13:38:33;;;;;;;1.70;1.60;;;35.30;38.70;;;;;;5039854;28;20551;-71
2021/06/01 13:46:38;;;;;;;2.33;2.13;;;33.40;39.70;;;;;;5041415;28;20454;-71
2021/06/01 13:49:11;;;;;;;2.37;2.00;;;33.00;40.00;;;;;;5045529;28;20463;-69
2021/06/01 13:57:11;;;;;;;2.70;2.10;;;30.70;42.10;;;;;;5040044;28;20443;-70
2021/06/01 14:05:38;;;;;;;2.63;2.40;;;29.80;43.20;;;;;;5004207;28;20516;-70
2021/06/01 14:27:50;;;;;;;5.63;2.20;;;29.10;44.20;;;;;;4958700;28;20492;-71
2021/06/01 14:31:01;;;;;;;2.30;2.10;;;28.80;43.20;;;;;;4985834;28;20993;-72
2021/06/01 14:36:32;;;;;;;3.50;2.87;;;28.20;43.60;;;;;;5036353;28;20475;-71
2021/06/01 14:56:13;;;;;;;1.70;1.60;;;28.30;43.30;;;;;;5046989;28;20847;-71
2021/06/01 15:32:05;;;;;;;2.70;2.10;;;27.10;43.80;;;;;;5047839;28;20546;-70
2021/06/01 15:48:47;;;;;;;4.10;1.87;;;26.90;43.00;;;;;;5043657;28;20939;-71
2021/06/01 16:13:54;;;;;;;2.50;1.73;;;26.80;44.70;;;;;;5038487;28;20997;-71
2021/06/01 16:22:02;;;;;;;2.43;1.93;;;26.50;44.10;;;;;;5028260;28;20476;-71
2021/06/01 16:30:17;;;;;;;2.70;2.20;;;26.00;45.50;;;;;;5031693;28;20455;-71
2021/06/01 16:43:51;;;;;;;4.23;1.50;;;26.00;46.40;;;;;;5029851;28;20875;-71
2021/06/01 17:03:14;;;;;;;3.03;1.60;;;26.00;45.10;;;;;;5029459;28;20463;-70
2021/06/01 17:05:43;;;;;;;3.60;2.47;;;26.10;45.10;;;;;;5031594;28;20456;-70
2021/06/01 17:11:07;;;;;;;2.17;1.40;;;26.00;44.50;;;;;;5039516;28;20919;-70
2021/06/01 17:13:37;;;;;;;2.47;1.50;;;25.90;44.60;;;;;;5032667;28;20461;-71
2021/06/01 17:16:05;;;;;;;1.73;1.53;;;26.00;45.40;;;;;;5034242;28;20553;-70
2021/06/01 17:24:24;;;;;;;2.03;1.83;;;25.80;44.70;;;;;;5030739;28;20800;-71
2021/06/01 17:34:34;;;;;;;1.50;1.30;;;26.00;44.90;;;;;;5030989;28;20585;-70
2021/06/01 17:35:13;;;;;;;2.60;1.93;;;26.00;44.10;;;;;;5030006;28;20467;-69
2021/06/01 17:37:39;;;;;;;1.60;1.10;;;25.90;44.10;;;;;;5038989;28;20451;-69